sensor_id;sensor_type;location;lat;lon;timestamp;pressure;altitude;pressure_sealevel;temperature;humidity
20156;BME280;10238;49.556;10.956;2023-05-12T00:00:23;98139.19;;;10.82;100.00
20156;BME280;10238;49.556;10.956;2023-05-12T00:03:13;98136.03;;;10.78;100.00
20156;BME280;10238;49.556;10.956;2023-05-12T00:06:01;98132.38;;;10.79;100.00
20156;BME280;10238;49.556;10.956;2023-05-12T00:08:50;98142.03;;;10.80;100.00
20156;BME280;10238;49.556;10.956;2023-05-12T00:11:38;98142.69;;;10.82;100.00
20156;BME280;10238;49.556;10.956;2023-05-12T00:14:26;98138.66;;;10.70;100.00
20156;BME280;10238;49.556;10.956;2023-05-12T00:17:14;98135.03;;;10.71;100.00
20156;BME280;10238;49.556;10.956;2023-05-12T00:20:04;98127.72;;;10.73;100.00
20156;BME280;10238;49.556;10.956;2023-05-12T00:22:52;98126.41;;;10.77;100.00
20156;BME280;10238;49.556;10.956;2023-05-12T00:25:40;98127.56;;;10.75;100.00
20156;BME280;10238;49.556;10.956;2023-05-12T00:28:28;98125.06;;;10.73;100.00
20156;BME280;10238;49.556;10.956;2023-05-12T00:31:16;98122.75;;;10.78;100.00
20156;BME280;10238;49.556;10.956;2023-05-12T00:34:04;98133.72;;;10.75;100.00
20156;BME280;10238;49.556;10.956;2023-05-12T00:36:53;98126.91;;;10.73;100.00
20156;BME280;10238;49.556;10.956;2023-05-12T00:39:41;98118.75;;;10.74;100.00
20156;BME280;10238;49.556;10.956;2023-05-12T00:42:29;98121.75;;;10.79;100.00
20156;BME280;10238;49.556;10.956;2023-05-12T00:45:17;98115.94;;;10.76;100.00
20156;BME280;10238;49.556;10.956;2023-05-12T00:48:06;98120.75;;;10.72;100.00
20156;BME280;10238;49.556;10.956;2023-05-12T00:50:54;98122.22;;;10.75;100.00
20156;BME280;10238;49.556;10.956;2023-05-12T00:53:44;98127.72;;;10.73;100.00
20156;BME280;10238;49.556;10.956;2023-05-12T00:56:36;98124.25;;;10.73;100.00
20156;BME280;10238;49.556;10.956;2023-05-12T00:59:25;98121.06;;;10.69;100.00
20156;BME280;10238;49.556;10.956;2023-05-12T01:02:13;98113.44;;;10.74;100.00
20156;BME280;10238;49.556;10.956;2023-05-12T01:05:02;98114.91;;;10.69;100.00
20156;BME280;10238;49.556;10.956;2023-05-12T01:07:50;98121.41;;;10.74;100.00
20156;BME280;10238;49.556;10.956;2023-05-12T01:10:44;98124.25;;;10.73;100.00
20156;BME280;10238;49.556;10.956;2023-05-12T01:13:33;98114.41;;;10.65;100.00
20156;BME280;10238;49.556;10.956;2023-05-12T01:16:24;98111.75;;;10.65;100.00
20156;BME280;10238;49.556;10.956;2023-05-12T01:19:24;98105.59;;;10.65;100.00
20156;BME280;10238;49.556;10.956;2023-05-12T01:22:17;98103.78;;;10.65;100.00
20156;BME280;10238;49.556;10.956;2023-05-12T01:25:07;98098.47;;;10.65;100.00
20156;BME280;10238;49.556;10.956;2023-05-12T01:27:59;98101.13;;;10.65;100.00
20156;BME280;10238;49.556;10.956;2023-05-12T01:30:48;98101.28;;;10.64;100.00
20156;BME280;10238;49.556;10.956;2023-05-12T01:33:36;98100.44;;;10.63;100.00
20156;BME280;10238;49.556;10.956;2023-05-12T01:36:25;98092.47;;;10.63;100.00
20156;BME280;10238;49.556;10.956;2023-05-12T01:39:13;98093.47;;;10.62;100.00
20156;BME280;10238;49.556;10.956;2023-05-12T01:42:01;98097.78;;;10.63;100.00
20156;BME280;10238;49.556;10.956;2023-05-12T01:44:50;98088.16;;;10.62;100.00
20156;BME280;10238;49.556;10.956;2023-05-12T01:47:39;98094.47;;;10.61;100.00
20156;BME280;10238;49.556;10.956;2023-05-12T01:50:27;98092.94;;;10.59;100.00
20156;BME280;10238;49.556;10.956;2023-05-12T01:53:15;98098.09;;;10.60;100.00
20156;BME280;10238;49.556;10.956;2023-05-12T01:56:03;98088.16;;;10.62;100.00
20156;BME280;10238;49.556;10.956;2023-05-12T01:58:51;98094.63;;;10.60;100.00
20156;BME280;10238;49.556;10.956;2023-05-12T02:01:41;98090.13;;;10.60;100.00
20156;BME280;10238;49.556;10.956;2023-05-12T02:04:29;98086.66;;;10.60;100.00
20156;BME280;10238;49.556;10.956;2023-05-12T02:07:17;98092.13;;;10.58;100.00
20156;BME280;10238;49.556;10.956;2023-05-12T02:10:06;98087.63;;;10.59;100.00
20156;BME280;10238;49.556;10.956;2023-05-12T02:12:54;98085.81;;;10.59;100.00
20156;BME280;10238;49.556;10.956;2023-05-12T02:15:42;98083.16;;;10.59;100.00
20156;BME280;10238;49.556;10.956;2023-05-12T02:18:31;98083.00;;;10.61;100.00
20156;BME280;10238;49.556;10.956;2023-05-12T02:21:19;98084.66;;;10.62;100.00
20156;BME280;10238;49.556;10.956;2023-05-12T02:24:07;98087.31;;;10.62;100.00
20156;BME280;10238;49.556;10.956;2023-05-12T02:26:55;98091.13;;;10.67;100.00
20156;BME280;10238;49.556;10.956;2023-05-12T02:29:43;98099.44;;;10.64;100.00
20156;BME280;10238;49.556;10.956;2023-05-12T02:32:31;98092.97;;;10.67;100.00
20156;BME280;10238;49.556;10.956;2023-05-12T02:35:21;98096.81;;;10.72;100.00
20156;BME280;10238;49.556;10.956;2023-05-12T02:38:08;98096.94;;;10.63;100.00
20156;BME280;10238;49.556;10.956;2023-05-12T02:40:56;98094.78;;;10.66;100.00
20156;BME280;10238;49.556;10.956;2023-05-12T02:43:44;98090.31;;;10.67;100.00
20156;BME280;10238;49.556;10.956;2023-05-12T02:46:32;98091.63;;;10.63;100.00
20156;BME280;10238;49.556;10.956;2023-05-12T02:49:20;98087.81;;;10.65;100.00
20156;BME280;10238;49.556;10.956;2023-05-12T02:52:10;98084.16;;;10.66;100.00
20156;BME280;10238;49.556;10.956;2023-05-12T02:54:57;98089.16;;;10.69;100.00
20156;BME280;10238;49.556;10.956;2023-05-12T02:57:45;98087.50;;;10.68;100.00
20156;BME280;10238;49.556;10.956;2023-05-12T03:00:33;98084.16;;;10.66;100.00
20156;BME280;10238;49.556;10.956;2023-05-12T03:03:21;98083.16;;;10.67;100.00
20156;BME280;10238;49.556;10.956;2023-05-12T03:06:09;98076.03;;;10.68;100.00
20156;BME280;10238;49.556;10.956;2023-05-12T03:09:01;98076.88;;;10.68;100.00
20156;BME280;10238;49.556;10.956;2023-05-12T03:11:49;98072.53;;;10.67;100.00
20156;BME280;10238;49.556;10.956;2023-05-12T03:14:37;98075.34;;;10.66;100.00
20156;BME280;10238;49.556;10.956;2023-05-12T03:17:25;98071.72;;;10.67;100.00
20156;BME280;10238;49.556;10.956;2023-05-12T03:20:16;98075.03;;;10.69;100.00
20156;BME280;10238;49.556;10.956;2023-05-12T03:23:04;98076.03;;;10.68;100.00
20156;BME280;10238;49.556;10.956;2023-05-12T03:25:54;98073.22;;;10.69;100.00
20156;BME280;10238;49.556;10.956;2023-05-12T03:28:42;98070.03;;;10.66;100.00
20156;BME280;10238;49.556;10.956;2023-05-12T03:31:30;98079.53;;;10.68;100.00
20156;BME280;10238;49.556;10.956;2023-05-12T03:34:18;98071.72;;;10.67;100.00
20156;BME280;10238;49.556;10.956;2023-05-12T03:37:05;98069.06;;;10.67;100.00
20156;BME280;10238;49.556;10.956;2023-05-12T03:39:53;98072.53;;;10.67;100.00
20156;BME280;10238;49.556;10.956;2023-05-12T03:42:43;98070.88;;;10.66;100.00
20156;BME280;10238;49.556;10.956;2023-05-12T03:45:32;98073.53;;;10.66;100.00
20156;BME280;10238;49.556;10.956;2023-05-12T03:48:20;98069.06;;;10.67;100.00
20156;BME280;10238;49.556;10.956;2023-05-12T03:51:07;98071.72;;;10.67;100.00
20156;BME280;10238;49.556;10.956;2023-05-12T03:53:55;98066.56;;;10.65;100.00
20156;BME280;10238;49.556;10.956;2023-05-12T03:56:44;98070.03;;;10.66;100.00
20156;BME280;10238;49.556;10.956;2023-05-12T03:59:33;98071.88;;;10.65;100.00
20156;BME280;10238;49.556;10.956;2023-05-12T04:02:21;98062.06;;;10.66;100.00
20156;BME280;10238;49.556;10.956;2023-05-12T04:05:09;98068.38;;;10.65;100.00
20156;BME280;10238;49.556;10.956;2023-05-12T04:07:57;98062.91;;;10.66;100.00
20156;BME280;10238;49.556;10.956;2023-05-12T04:10:45;98068.22;;;10.66;100.00
20156;BME280;10238;49.556;10.956;2023-05-12T04:13:33;98073.53;;;10.66;100.00
20156;BME280;10238;49.556;10.956;2023-05-12T04:16:25;98078.84;;;10.66;100.00
20156;BME280;10238;49.556;10.956;2023-05-12T04:19:13;98083.16;;;10.67;100.00
20156;BME280;10238;49.556;10.956;2023-05-12T04:22:01;98084.16;;;10.66;100.00
20156;BME280;10238;49.556;10.956;2023-05-12T04:24:49;98093.50;;;10.78;100.00
20156;BME280;10238;49.556;10.956;2023-05-12T04:27:37;98101.78;;;10.67;100.00
20156;BME280;10238;49.556;10.956;2023-05-12T04:30:25;98108.44;;;10.71;100.00
20156;BME280;10238;49.556;10.956;2023-05-12T04:33:17;98115.75;;;10.69;100.00
20156;BME280;10238;49.556;10.956;2023-05-12T04:36:05;98113.44;;;10.74;100.00
20156;BME280;10238;49.556;10.956;2023-05-12T04:38:53;98117.91;;;10.74;100.00
20156;BME280;10238;49.556;10.956;2023-05-12T04:41:41;98112.75;;;10.72;100.00
20156;BME280;10238;49.556;10.956;2023-05-12T04:44:31;98108.44;;;10.71;100.00
20156;BME280;10238;49.556;10.956;2023-05-12T04:47:19;98122.56;;;10.72;100.00
20156;BME280;10238;49.556;10.956;2023-05-12T04:50:11;98118.75;;;10.74;100.00
20156;BME280;10238;49.556;10.956;2023-05-12T04:52:59;98122.41;;;10.73;100.00
20156;BME280;10238;49.556;10.956;2023-05-12T04:55:47;98126.41;;;10.77;100.00
20156;BME280;10238;49.556;10.956;2023-05-12T04:58:35;98119.72;;;10.73;100.00
20156;BME280;10238;49.556;10.956;2023-05-12T05:01:24;98125.91;;;10.74;100.00
20156;BME280;10238;49.556;10.956;2023-05-12T05:04:12;98116.25;;;10.73;100.00
20156;BME280;10238;49.556;10.956;2023-05-12T05:07:01;98116.75;;;10.76;100.00
20156;BME280;10238;49.556;10.956;2023-05-12T05:09:51;98117.28;;;10.80;100.00
20156;BME280;10238;49.556;10.956;2023-05-12T05:12:39;98110.78;;;10.82;100.00
20156;BME280;10238;49.556;10.956;2023-05-12T05:15:27;98108.81;;;10.84;100.00
20156;BME280;10238;49.556;10.956;2023-05-12T05:18:15;98108.81;;;10.84;100.00
20156;BME280;10238;49.556;10.956;2023-05-12T05:21:03;98105.03;;;10.95;100.00
20156;BME280;10238;49.556;10.956;2023-05-12T05:23:52;98105.50;;;10.90;100.00
20156;BME280;10238;49.556;10.956;2023-05-12T05:26:40;98107.53;;;10.97;100.00
20156;BME280;10238;49.556;10.956;2023-05-12T05:29:28;98105.88;;;11.04;100.00
20156;BME280;10238;49.556;10.956;2023-05-12T05:32:15;98109.66;;;11.01;100.00
20156;BME280;10238;49.556;10.956;2023-05-12T05:35:04;98106.50;;;11.06;100.00
20156;BME280;10238;49.556;10.956;2023-05-12T05:37:52;98110.38;;;11.11;100.00
20156;BME280;10238;49.556;10.956;2023-05-12T05:40:43;98122.19;;;11.17;100.00
20156;BME280;10238;49.556;10.956;2023-05-12T05:43:39;98125.84;;;11.24;100.00
20156;BME280;10238;49.556;10.956;2023-05-12T05:46:27;98129.34;;;11.32;100.00
20156;BME280;10238;49.556;10.956;2023-05-12T05:49:15;98128.84;;;11.29;100.00
20156;BME280;10238;49.556;10.956;2023-05-12T05:52:03;98133.00;;;11.31;100.00
20156;BME280;10238;49.556;10.956;2023-05-12T05:54:51;98134.84;;;11.39;100.00
20156;BME280;10238;49.556;10.956;2023-05-12T05:57:40;98132.19;;;11.47;100.00
20156;BME280;10238;49.556;10.956;2023-05-12T06:00:28;98141.31;;;11.52;100.00
20156;BME280;10238;49.556;10.956;2023-05-12T06:03:16;98141.84;;;11.48;100.00
20156;BME280;10238;49.556;10.956;2023-05-12T06:06:04;98152.53;;;11.64;100.00
20156;BME280;10238;49.556;10.956;2023-05-12T06:08:52;98152.00;;;11.60;100.00
20156;BME280;10238;49.556;10.956;2023-05-12T06:11:41;98153.84;;;11.68;100.00
20156;BME280;10238;49.556;10.956;2023-05-12T06:14:31;98156.50;;;11.76;100.00
20156;BME280;10238;49.556;10.956;2023-05-12T06:17:18;98160.53;;;11.80;100.00
20156;BME280;10238;49.556;10.956;2023-05-12T06:20:07;98153.84;;;11.92;100.00
20156;BME280;10238;49.556;10.956;2023-05-12T06:22:55;98165.31;;;11.92;100.00
20156;BME280;10238;49.556;10.956;2023-05-12T06:25:43;98158.81;;;11.95;100.00
20156;BME280;10238;49.556;10.956;2023-05-12T06:28:31;98161.66;;;12.01;100.00
20156;BME280;10238;49.556;10.956;2023-05-12T06:31:21;98165.16;;;12.02;100.00
20156;BME280;10238;49.556;10.956;2023-05-12T06:34:09;98168.16;;;12.07;100.00
20156;BME280;10238;49.556;10.956;2023-05-12T06:36:57;98165.97;;;12.10;100.00
20156;BME280;10238;49.556;10.956;2023-05-12T06:39:45;98170.31;;;12.11;100.00
20156;BME280;10238;49.556;10.956;2023-05-12T06:42:33;98168.63;;;12.18;100.00
20156;BME280;10238;49.556;10.956;2023-05-12T06:45:21;98174.75;;;12.27;100.00
20156;BME280;10238;49.556;10.956;2023-05-12T06:48:11;98169.09;;;12.38;100.00
20156;BME280;10238;49.556;10.956;2023-05-12T06:50:59;98180.59;;;12.38;100.00
20156;BME280;10238;49.556;10.956;2023-05-12T06:53:47;98165.75;;;12.44;100.00
20156;BME280;10238;49.556;10.956;2023-05-12T06:56:35;98176.38;;;12.60;100.00
20156;BME280;10238;49.556;10.956;2023-05-12T06:59:23;98177.72;;;12.56;100.00
20156;BME280;10238;49.556;10.956;2023-05-12T07:02:11;98168.81;;;12.71;100.00
20156;BME280;10238;49.556;10.956;2023-05-12T07:05:00;98171.78;;;12.76;100.00
20156;BME280;10238;49.556;10.956;2023-05-12T07:07:48;98178.28;;;12.82;100.00
20156;BME280;10238;49.556;10.956;2023-05-12T07:10:36;98172.16;;;12.73;100.00
20156;BME280;10238;49.556;10.956;2023-05-12T07:13:25;98174.09;;;12.87;100.00
20156;BME280;10238;49.556;10.956;2023-05-12T07:16:13;98182.59;;;12.91;100.00
20156;BME280;10238;49.556;10.956;2023-05-12T07:19:01;98173.56;;;13.00;100.00
20156;BME280;10238;49.556;10.956;2023-05-12T07:21:52;98175.53;;;12.98;100.00
20156;BME280;10238;49.556;10.956;2023-05-12T07:24:40;98180.75;;;12.99;100.00
20156;BME280;10238;49.556;10.956;2023-05-12T07:27:29;98179.50;;;13.10;100.00
20156;BME280;10238;49.556;10.956;2023-05-12T07:30:17;98170.16;;;13.14;100.00
20156;BME280;10238;49.556;10.956;2023-05-12T07:33:05;98182.50;;;13.15;100.00
20156;BME280;10238;49.556;10.956;2023-05-12T07:35:54;98180.13;;;13.20;100.00
20156;BME280;10238;49.556;10.956;2023-05-12T07:38:43;98176.09;;;13.24;100.00
20156;BME280;10238;49.556;10.956;2023-05-12T07:41:34;98178.50;;;13.42;100.00
20156;BME280;10238;49.556;10.956;2023-05-12T07:44:25;98182.00;;;13.42;100.00
20156;BME280;10238;49.556;10.956;2023-05-12T07:47:12;98186.09;;;13.53;100.00
20156;BME280;10238;49.556;10.956;2023-05-12T07:50:01;98181.47;;;13.69;100.00
20156;BME280;10238;49.556;10.956;2023-05-12T07:52:49;98178.75;;;13.77;100.00
20156;BME280;10238;49.556;10.956;2023-05-12T07:55:38;98179.50;;;13.86;100.00
20156;BME280;10238;49.556;10.956;2023-05-12T07:58:26;98180.81;;;13.90;100.00
20156;BME280;10238;49.556;10.956;2023-05-12T08:01:15;98187.03;;;13.82;100.00
20156;BME280;10238;49.556;10.956;2023-05-12T08:04:03;98187.47;;;13.71;100.00
20156;BME280;10238;49.556;10.956;2023-05-12T08:06:52;98180.69;;;13.83;100.00
20156;BME280;10238;49.556;10.956;2023-05-12T08:09:40;98185.91;;;13.99;100.00
20156;BME280;10238;49.556;10.956;2023-05-12T08:12:29;98197.59;;;13.98;100.00
20156;BME280;10238;49.556;10.956;2023-05-12T08:15:17;98185.25;;;13.97;100.00
20156;BME280;10238;49.556;10.956;2023-05-12T08:18:05;98181.78;;;14.11;100.00
20156;BME280;10238;49.556;10.956;2023-05-12T08:20:54;98191.06;;;14.23;100.00
20156;BME280;10238;49.556;10.956;2023-05-12T08:23:42;98195.09;;;14.19;100.00
20156;BME280;10238;49.556;10.956;2023-05-12T08:26:30;98185.72;;;14.23;100.00
20156;BME280;10238;49.556;10.956;2023-05-12T08:29:19;98195.56;;;14.23;100.00
20156;BME280;10238;49.556;10.956;2023-05-12T08:32:07;98197.72;;;14.27;100.00
20156;BME280;10238;49.556;10.956;2023-05-12T08:34:55;98197.28;;;14.38;100.00
20156;BME280;10238;49.556;10.956;2023-05-12T08:37:43;98196.25;;;14.39;100.00
20156;BME280;10238;49.556;10.956;2023-05-12T08:40:37;98197.38;;;14.45;100.00
20156;BME280;10238;49.556;10.956;2023-05-12T08:43:36;98196.09;;;14.55;100.00
20156;BME280;10238;49.556;10.956;2023-05-12T08:46:26;98198.41;;;14.58;100.00
20156;BME280;10238;49.556;10.956;2023-05-12T08:49:16;98199.25;;;14.73;100.00
20156;BME280;10238;49.556;10.956;2023-05-12T08:52:08;98205.50;;;14.80;100.00
20156;BME280;10238;49.556;10.956;2023-05-12T08:54:56;98203.94;;;14.86;100.00
20156;BME280;10238;49.556;10.956;2023-05-12T08:57:47;98206.53;;;14.94;100.00
20156;BME280;10238;49.556;10.956;2023-05-12T09:00:36;98208.28;;;15.01;100.00
20156;BME280;10238;49.556;10.956;2023-05-12T09:03:27;98212.53;;;14.81;100.00
20156;BME280;10238;49.556;10.956;2023-05-12T09:06:16;98201.25;;;15.00;100.00
20156;BME280;10238;49.556;10.956;2023-05-12T09:09:04;98193.13;;;15.08;100.00
20156;BME280;10238;49.556;10.956;2023-05-12T09:11:56;98199.03;;;15.18;100.00
20156;BME280;10238;49.556;10.956;2023-05-12T09:14:45;98208.25;;;15.31;100.00
20156;BME280;10238;49.556;10.956;2023-05-12T09:17:35;98207.66;;;15.50;100.00
20156;BME280;10238;49.556;10.956;2023-05-12T09:20:25;98210.88;;;15.60;100.00
20156;BME280;10238;49.556;10.956;2023-05-12T09:23:19;98203.25;;;15.63;100.00
20156;BME280;10238;49.556;10.956;2023-05-12T09:26:07;98204.06;;;15.57;100.00
20156;BME280;10238;49.556;10.956;2023-05-12T09:29:03;98202.19;;;15.58;100.00
20156;BME280;10238;49.556;10.956;2023-05-12T09:31:53;98209.28;;;15.65;100.00
20156;BME280;10238;49.556;10.956;2023-05-12T09:34:42;98216.66;;;15.63;100.00
20156;BME280;10238;49.556;10.956;2023-05-12T09:37:33;98211.06;;;15.58;100.00
20156;BME280;10238;49.556;10.956;2023-05-12T09:40:21;98208.19;;;15.60;100.00
20156;BME280;10238;49.556;10.956;2023-05-12T09:43:09;98204.94;;;15.64;100.00
20156;BME280;10238;49.556;10.956;2023-05-12T09:46:04;98205.94;;;15.63;100.00
20156;BME280;10238;49.556;10.956;2023-05-12T09:48:55;98205.47;;;15.74;100.00
20156;BME280;10238;49.556;10.956;2023-05-12T09:51:43;98210.94;;;15.87;100.00
20156;BME280;10238;49.556;10.956;2023-05-12T09:54:39;98209.22;;;16.01;100.00
20156;BME280;10238;49.556;10.956;2023-05-12T09:57:27;98202.75;;;15.95;100.00
20156;BME280;10238;49.556;10.956;2023-05-12T10:00:16;98198.25;;;15.96;100.00
20156;BME280;10238;49.556;10.956;2023-05-12T10:03:26;98200.41;;;16.07;100.00
20156;BME280;10238;49.556;10.956;2023-05-12T10:06:22;98196.81;;;16.21;100.00
20156;BME280;10238;49.556;10.956;2023-05-12T10:09:15;98184.34;;;16.07;100.00
20156;BME280;10238;49.556;10.956;2023-05-12T10:12:08;98197.19;;;16.18;100.00
20156;BME280;10238;49.556;10.956;2023-05-12T10:14:56;98194.63;;;16.31;100.00
20156;BME280;10238;49.556;10.956;2023-05-12T10:17:44;98184.34;;;16.34;100.00
20156;BME280;10238;49.556;10.956;2023-05-12T10:20:33;98187.34;;;16.46;100.00
20156;BME280;10238;49.556;10.956;2023-05-12T10:23:22;98187.75;;;16.22;100.00
20156;BME280;10238;49.556;10.956;2023-05-12T10:26:11;98186.31;;;16.47;100.00
20156;BME280;10238;49.556;10.956;2023-05-12T10:29:01;98192.94;;;16.51;100.00
20156;BME280;10238;49.556;10.956;2023-05-12T10:31:49;98187.00;;;16.55;100.00
20156;BME280;10238;49.556;10.956;2023-05-12T10:34:38;98192.41;;;16.62;100.00
20156;BME280;10238;49.556;10.956;2023-05-12T10:37:28;98192.41;;;16.62;100.00
20156;BME280;10238;49.556;10.956;2023-05-12T10:40:23;98178.59;;;16.65;100.00
20156;BME280;10238;49.556;10.956;2023-05-12T10:43:21;98186.13;;;16.48;100.00
20156;BME280;10238;49.556;10.956;2023-05-12T10:46:16;98193.34;;;16.82;100.00
20156;BME280;10238;49.556;10.956;2023-05-12T10:49:08;98180.41;;;16.92;100.00
20156;BME280;10238;49.556;10.956;2023-05-12T10:51:59;98190.72;;;16.88;100.00
20156;BME280;10238;49.556;10.956;2023-05-12T10:54:47;98198.78;;;16.95;100.00
20156;BME280;10238;49.556;10.956;2023-05-12T10:57:47;98201.03;;;16.85;100.00
20156;BME280;10238;49.556;10.956;2023-05-12T11:00:44;98209.41;;;17.03;100.00
20156;BME280;10238;49.556;10.956;2023-05-12T11:03:34;98199.50;;;17.10;100.00
20156;BME280;10238;49.556;10.956;2023-05-12T11:06:23;98206.38;;;17.19;100.00
20156;BME280;10238;49.556;10.956;2023-05-12T11:09:16;98202.97;;;17.04;100.00
20156;BME280;10238;49.556;10.956;2023-05-12T11:12:06;98198.47;;;17.11;100.00
20156;BME280;10238;49.556;10.956;2023-05-12T11:14:55;98206.13;;;17.14;100.00
20156;BME280;10238;49.556;10.956;2023-05-12T11:17:42;98203.16;;;16.96;100.00
20156;BME280;10238;49.556;10.956;2023-05-12T11:20:32;98210.44;;;16.74;100.00
20156;BME280;10238;49.556;10.956;2023-05-12T11:23:24;98215.31;;;16.58;100.00
20156;BME280;10238;49.556;10.956;2023-05-12T11:26:16;98214.09;;;16.67;100.00
20156;BME280;10238;49.556;10.956;2023-05-12T11:29:04;98218.94;;;16.78;100.00
20156;BME280;10238;49.556;10.956;2023-05-12T11:31:54;98213.00;;;16.89;100.00
20156;BME280;10238;49.556;10.956;2023-05-12T11:34:42;98208.47;;;16.89;100.00
20156;BME280;10238;49.556;10.956;2023-05-12T11:37:36;98215.81;;;16.74;100.00
20156;BME280;10238;49.556;10.956;2023-05-12T11:40:24;98216.28;;;16.84;100.00
20156;BME280;10238;49.556;10.956;2023-05-12T11:43:12;98215.91;;;16.87;100.00
20156;BME280;10238;49.556;10.956;2023-05-12T11:46:01;98216.97;;;16.93;100.00
20156;BME280;10238;49.556;10.956;2023-05-12T11:48:54;98217.41;;;16.96;100.00
20156;BME280;10238;49.556;10.956;2023-05-12T11:51:42;98215.31;;;16.92;100.00
20156;BME280;10238;49.556;10.956;2023-05-12T11:54:31;98218.78;;;16.86;100.00
20156;BME280;10238;49.556;10.956;2023-05-12T11:57:26;98213.00;;;16.89;100.00
20156;BME280;10238;49.556;10.956;2023-05-12T12:00:14;98216.72;;;16.88;100.00
20156;BME280;10238;49.556;10.956;2023-05-12T12:03:07;98213.22;;;16.87;100.00
20156;BME280;10238;49.556;10.956;2023-05-12T12:06:00;98214.41;;;16.78;100.00
20156;BME280;10238;49.556;10.956;2023-05-12T12:08:52;98219.06;;;16.63;100.00
20156;BME280;10238;49.556;10.956;2023-05-12T12:11:41;98226.53;;;16.68;100.00
20156;BME280;10238;49.556;10.956;2023-05-12T12:14:31;98231.34;;;16.51;100.00
20156;BME280;10238;49.556;10.956;2023-05-12T12:17:19;98230.75;;;16.35;100.00
20156;BME280;10238;49.556;10.956;2023-05-12T12:20:14;98239.47;;;16.37;100.00
20156;BME280;10238;49.556;10.956;2023-05-12T12:23:03;98241.09;;;16.38;100.00
20156;BME280;10238;49.556;10.956;2023-05-12T12:25:51;98236.03;;;16.43;100.00
20156;BME280;10238;49.556;10.956;2023-05-12T12:28:40;98245.75;;;16.44;100.00
20156;BME280;10238;49.556;10.956;2023-05-12T12:31:28;98253.25;;;16.34;100.00
20156;BME280;10238;49.556;10.956;2023-05-12T12:34:16;98250.38;;;16.14;100.00
20156;BME280;10238;49.556;10.956;2023-05-12T12:37:04;98250.19;;;16.37;100.00
20156;BME280;10238;49.556;10.956;2023-05-12T12:39:53;98257.94;;;16.25;100.00
20156;BME280;10238;49.556;10.956;2023-05-12T12:42:40;98253.78;;;16.23;100.00
20156;BME280;10238;49.556;10.956;2023-05-12T12:45:30;98254.69;;;16.30;100.00
20156;BME280;10238;49.556;10.956;2023-05-12T12:48:18;98259.28;;;16.36;100.00
20156;BME280;10238;49.556;10.956;2023-05-12T12:51:06;98256.09;;;16.26;100.00
20156;BME280;10238;49.556;10.956;2023-05-12T12:53:54;98253.84;;;16.29;100.00
20156;BME280;10238;49.556;10.956;2023-05-12T12:56:42;98256.97;;;16.12;100.00
20156;BME280;10238;49.556;10.956;2023-05-12T12:59:30;98257.44;;;16.15;100.00
20156;BME280;10238;49.556;10.956;2023-05-12T13:02:19;98255.28;;;16.32;100.00
20156;BME280;10238;49.556;10.956;2023-05-12T13:05:08;98263.88;;;16.42;100.00
20156;BME280;10238;49.556;10.956;2023-05-12T13:07:56;98255.25;;;16.04;100.00
20156;BME280;10238;49.556;10.956;2023-05-12T13:10:44;98261.97;;;16.36;100.00
20156;BME280;10238;49.556;10.956;2023-05-12T13:13:32;98256.78;;;16.34;100.00
20156;BME280;10238;49.556;10.956;2023-05-12T13:16:20;98261.06;;;16.50;100.00
20156;BME280;10238;49.556;10.956;2023-05-12T13:19:10;98264.72;;;16.21;100.00
20156;BME280;10238;49.556;10.956;2023-05-12T13:21:58;98260.03;;;16.30;100.00
20156;BME280;10238;49.556;10.956;2023-05-12T13:24:46;98259.88;;;16.38;100.00
20156;BME280;10238;49.556;10.956;2023-05-12T13:27:34;98255.94;;;16.34;100.00
20156;BME280;10238;49.556;10.956;2023-05-12T13:30:22;98269.88;;;16.23;100.00
20156;BME280;10238;49.556;10.956;2023-05-12T13:33:10;98265.41;;;16.30;100.00
20156;BME280;10238;49.556;10.956;2023-05-12T13:36:00;98261.44;;;16.47;100.00
20156;BME280;10238;49.556;10.956;2023-05-12T13:38:48;98259.47;;;16.34;100.00
20156;BME280;10238;49.556;10.956;2023-05-12T13:41:36;98260.94;;;16.37;100.00
20156;BME280;10238;49.556;10.956;2023-05-12T13:44:23;98265.41;;;16.30;100.00
20156;BME280;10238;49.556;10.956;2023-05-12T13:47:11;98264.94;;;16.26;100.00
20156;BME280;10238;49.556;10.956;2023-05-12T13:50:00;98261.75;;;16.16;100.00
20156;BME280;10238;49.556;10.956;2023-05-12T13:52:50;98257.47;;;16.22;100.00
20156;BME280;10238;49.556;10.956;2023-05-12T13:55:38;98264.34;;;16.24;100.00
20156;BME280;10238;49.556;10.956;2023-05-12T13:58:26;98260.72;;;16.17;100.00
20156;BME280;10238;49.556;10.956;2023-05-12T14:01:14;98261.03;;;16.29;100.00
20156;BME280;10238;49.556;10.956;2023-05-12T14:04:02;98265.53;;;16.01;100.00
20156;BME280;10238;49.556;10.956;2023-05-12T14:06:50;98257.22;;;15.96;100.00
20156;BME280;10238;49.556;10.956;2023-05-12T14:09:40;98263.84;;;15.79;100.00
20156;BME280;10238;49.556;10.956;2023-05-12T14:12:28;98265.09;;;15.97;100.00
20156;BME280;10238;49.556;10.956;2023-05-12T14:15:16;98267.56;;;15.99;100.00
20156;BME280;10238;49.556;10.956;2023-05-12T14:18:24;98262.84;;;16.01;100.00
20156;BME280;10238;49.556;10.956;2023-05-12T14:21:12;98272.56;;;16.02;100.00
20156;BME280;10238;49.556;10.956;2023-05-12T14:24:00;98268.28;;;15.86;100.00
20156;BME280;10238;49.556;10.956;2023-05-12T14:26:52;98266.28;;;15.95;100.00
20156;BME280;10238;49.556;10.956;2023-05-12T14:29:40;98270.91;;;16.01;100.00
20156;BME280;10238;49.556;10.956;2023-05-12T14:32:28;98274.66;;;16.06;100.00